Time;durP1;ratioP1;P1;durP2;ratioP2;P2;SDS_P1;SDS_P2;PMS_P1;PMS_P2;Temp;Humidity;BMP_temperature;BMP_pressure;BME280_temperature;BME280_humidity;BME280_pressure;Samples;Min_cycle;Max_cycle;Signal;HPM_P1;HPM_P2
2023/12/01 00:00:08;;;;;;;15.43;10.27;;;;;;;-0.11;100.00;99845.09;4827105;29;20501;-96
2023/12/01 00:02:34;;;;;;;17.30;10.45;;;;;;;-0.05;100.00;99854.31;4839455;29;20045;-96
2023/12/01 00:05:08;;;;;;;15.70;9.75;;;;;;;-0.03;100.00;99862.81;4830568;29;20029;-96
2023/12/01 00:07:34;;;;;;;18.08;10.15;;;;;;;-0.07;100.00;99862.19;4847841;29;20074;-96
2023/12/01 00:10:02;;;;;;;15.80;9.57;;;;;;;-0.05;100.00;99859.50;4859134;29;20050;-95
2023/12/01 00:12:28;;;;;;;14.75;9.10;;;;;;;-0.03;100.00;99857.63;4839952;29;20045;-96
2023/12/01 00:14:56;;;;;;;15.45;9.45;;;;;;;-0.06;100.00;99855.22;4850781;29;20500;-96
2023/12/01 00:17:28;;;;;;;13.75;9.10;;;;;;;-0.01;100.00;99866.19;4829033;29;20048;-96
2023/12/01 00:19:54;;;;;;;14.18;10.35;;;;;;;-0.03;100.00;99865.41;4860008;29;20077;-96
2023/12/01 00:22:22;;;;;;;17.95;10.38;;;;;;;-0.10;100.00;99864.13;4875495;29;20116;-95
2023/12/01 00:24:50;;;;;;;18.40;10.07;;;;;;;-0.16;100.00;99862.72;4864447;29;20041;-96
2023/12/01 00:27:18;;;;;;;18.27;10.93;;;;;;;-0.19;100.00;99862.91;4844917;29;20061;-96
2023/12/01 00:29:45;;;;;;;18.00;9.82;;;;;;;-0.25;100.00;99858.88;4834723;29;20504;-96
2023/12/01 00:32:13;;;;;;;25.40;11.07;;;;;;;-0.28;100.00;99854.72;4840226;29;20485;-95
2023/12/01 00:34:40;;;;;;;17.20;10.48;;;;;;;-0.32;100.00;99852.38;4850087;29;20045;-96
2023/12/01 00:37:11;;;;;;;21.38;10.32;;;;;;;-0.29;100.00;99865.19;4844856;29;20045;-96
2023/12/01 00:39:42;;;;;;;30.95;15.57;;;;;;;-0.32;100.00;99873.16;4828106;29;20107;-96
2023/12/01 00:42:13;;;;;;;30.75;16.77;;;;;;;-0.47;100.00;99867.91;4830452;29;20077;-96
2023/12/01 00:44:45;;;;;;;37.50;16.08;;;;;;;-0.44;100.00;99872.94;4823261;29;20480;-96
2023/12/01 00:47:11;;;;;;;24.17;13.27;;;;;;;-0.48;100.00;99871.44;4838172;29;20128;-96
2023/12/01 00:49:37;;;;;;;23.40;12.73;;;;;;;-0.51;100.00;99864.66;4826042;29;20041;-95
2023/12/01 00:52:04;;;;;;;19.45;11.95;;;;;;;-0.48;100.00;99868.84;4841401;29;20572;-85
2023/12/01 00:54:32;;;;;;;21.63;12.38;;;;;;;-0.52;100.00;99862.16;4841011;29;20563;-96
2023/12/01 00:56:58;;;;;;;22.00;12.20;;;;;;;-0.50;100.00;99875.88;4831469;29;20049;-96
2023/12/01 00:59:24;;;;;;;26.15;13.07;;;;;;;-0.57;100.00;99865.00;4859472;29;20041;-96
2023/12/01 01:01:51;;;;;;;22.48;11.93;;;;;;;-0.62;100.00;99859.22;4845520;29;20121;-96
2023/12/01 01:04:16;;;;;;;21.60;11.07;;;;;;;-0.58;100.00;99862.50;4841829;29;20068;-96
2023/12/01 01:06:42;;;;;;;19.70;10.93;;;;;;;-0.54;100.00;99871.81;4841588;29;20045;-96
2023/12/01 01:09:09;;;;;;;18.58;11.23;;;;;;;-0.54;100.00;99875.22;4857357;29;20069;-96
2023/12/01 01:11:36;;;;;;;17.80;10.45;;;;;;;-0.58;100.00;99873.72;4843705;29;20117;-96
2023/12/01 01:14:01;;;;;;;19.88;10.85;;;;;;;-0.56;100.00;99877.09;4829096;29;20124;-96
2023/12/01 01:16:27;;;;;;;18.83;11.60;;;;;;;-0.57;100.00;99861.56;4827131;29;20073;-96
2023/12/01 01:18:53;;;;;;;20.52;11.55;;;;;;;-0.48;100.00;99865.41;4844786;29;20030;-95
2023/12/01 01:21:19;;;;;;;21.48;11.23;;;;;;;-0.47;100.00;99867.06;4851230;29;20084;-95
2023/12/01 01:23:45;;;;;;;23.95;11.35;;;;;;;-0.48;100.00;99874.06;4829351;29;20128;-96
2023/12/01 01:26:13;;;;;;;20.73;13.75;;;;;;;-0.49;100.00;99871.53;4822264;29;20048;-96
2023/12/01 01:28:40;;;;;;;18.42;10.35;;;;;;;-0.57;100.00;99866.75;4856043;29;20030;-96
2023/12/01 01:31:06;;;;;;;23.42;12.20;;;;;;;-0.57;100.00;99865.00;4844744;29;20052;-96
2023/12/01 01:33:32;;;;;;;18.00;10.82;;;;;;;-0.60;100.00;99857.38;4830035;29;20045;-96
2023/12/01 01:36:07;;;;;;;16.67;10.73;;;;;;;-0.64;100.00;99856.72;4842535;29;20046;-96
2023/12/01 01:38:34;;;;;;;17.58;10.73;;;;;;;-0.59;100.00;99866.84;4854705;29;20077;-96
2023/12/01 01:41:06;;;;;;;19.10;11.30;;;;;;;-0.59;100.00;99853.03;4841600;29;20134;-96
2023/12/01 01:43:36;;;;;;;15.10;9.45;;;;;;;-0.60;100.00;99862.59;4857211;29;20038;-96
2023/12/01 01:46:06;;;;;;;18.45;10.90;;;;;;;-0.65;100.00;99847.28;4822490;29;20067;-96
2023/12/01 01:48:46;;;;;;;20.20;10.70;;;;;;;-0.68;100.00;99851.78;4841430;29;20041;-96
2023/12/01 01:51:19;;;;;;;18.92;10.15;;;;;;;-0.75;100.00;99857.31;4853955;29;20140;-96
2023/12/01 01:53:45;;;;;;;18.50;10.35;;;;;;;-0.77;100.00;99854.00;4843054;29;20053;-96
2023/12/01 01:56:12;;;;;;;15.68;9.98;;;;;;;-0.74;100.00;99858.16;4832693;29;20077;-96
2023/12/01 01:58:39;;;;;;;15.43;10.05;;;;;;;-0.79;100.00;99862.78;4844600;29;20102;-95
2023/12/01 02:01:07;;;;;;;13.35;8.90;;;;;;;-0.90;100.00;99861.63;4834143;29;20126;-94
2023/12/01 02:03:35;;;;;;;18.85;8.38;;;;;;;-0.92;100.00;99854.84;4845154;29;20049;-96
2023/12/01 02:06:06;;;;;;;15.48;8.55;;;;;;;-0.93;100.00;99859.19;4843962;29;20050;-96
2023/12/01 02:08:36;;;;;;;11.57;7.65;;;;;;;-0.93;100.00;99856.59;4852346;29;20069;-96
2023/12/01 02:11:09;;;;;;;15.30;7.97;;;;;;;-0.98;100.00;99850.81;4839151;29;20041;-96
2023/12/01 02:13:44;;;;;;;12.25;7.82;;;;;;;-0.92;100.00;99860.88;4853093;29;20124;-96
2023/12/01 02:16:13;;;;;;;11.13;6.90;;;;;;;-1.01;100.00;99862.22;4830118;29;20041;-96
2023/12/01 02:18:39;;;;;;;12.68;7.00;;;;;;;-1.05;100.00;99858.09;4856301;29;20087;-96
2023/12/01 02:21:05;;;;;;;13.18;7.38;;;;;;;-1.04;100.00;99859.78;4847364;29;20126;-96
2023/12/01 02:23:34;;;;;;;12.48;8.23;;;;;;;-1.13;100.00;99853.34;4834614;29;20045;-96
2023/12/01 02:26:01;;;;;;;14.65;8.85;;;;;;;-1.08;100.00;99870.44;4847764;29;20038;-96
2023/12/01 02:28:27;;;;;;;16.00;9.63;;;;;;;-1.14;100.00;99863.78;4825363;29;20035;-96
2023/12/01 02:30:55;;;;;;;16.83;9.50;;;;;;;-1.09;100.00;99871.31;4831609;29;20525;-95
2023/12/01 02:33:22;;;;;;;16.20;8.88;;;;;;;-1.19;100.00;99866.63;4824888;29;20045;-96
2023/12/01 02:35:50;;;;;;;12.98;8.13;;;;;;;-1.15;100.00;99873.31;4858670;29;20544;-96
2023/12/01 02:38:17;;;;;;;21.02;8.15;;;;;;;-1.18;100.00;99857.94;4830075;29;20041;-96
2023/12/01 02:40:44;;;;;;;12.80;7.13;;;;;;;-1.15;100.00;99867.31;4824845;29;20097;-96
2023/12/01 02:43:13;;;;;;;13.60;8.38;;;;;;;-1.15;100.00;99872.50;4846357;29;20045;-96
2023/12/01 02:45:39;;;;;;;11.85;6.80;;;;;;;-1.27;100.00;99876.56;4831770;29;20470;-96
2023/12/01 02:48:08;;;;;;;9.50;5.50;;;;;;;-1.40;100.00;99863.47;4820363;29;20128;-96
2023/12/01 02:50:35;;;;;;;10.90;5.20;;;;;;;-1.41;100.00;99878.16;4846088;29;20045;-96
2023/12/01 02:53:01;;;;;;;11.60;6.70;;;;;;;-1.48;100.00;99879.38;4861584;29;20077;-96
2023/12/01 02:55:28;;;;;;;8.18;5.13;;;;;;;-1.46;100.00;99877.56;4828028;29;20050;-96
2023/12/01 02:57:54;;;;;;;8.30;5.50;;;;;;;-1.58;100.00;99867.84;4822413;29;20508;-96
2023/12/01 03:00:22;;;;;;;9.25;5.95;;;;;;;-1.60;100.00;99878.28;4847179;29;20045;-95
2023/12/01 03:02:50;;;;;;;8.63;6.03;;;;;;;-1.59;100.00;99873.94;4842707;29;20045;-96
2023/12/01 03:05:16;;;;;;;8.90;5.72;;;;;;;-1.49;100.00;99875.13;4832924;29;20112;-96
2023/12/01 03:07:43;;;;;;;6.78;5.32;;;;;;;-1.56;100.00;99874.59;4845911;29;20034;-96
2023/12/01 03:10:09;;;;;;;11.45;6.60;;;;;;;-1.52;100.00;99870.09;4868074;29;20124;-96
2023/12/01 03:12:43;;;;;;;10.82;6.40;;;;;;;-1.46;100.00;99872.38;4830387;29;20045;-96
2023/12/01 03:15:14;;;;;;;8.90;6.10;;;;;;;-1.49;100.00;99877.72;4862485;29;20037;-96
2023/12/01 03:17:41;;;;;;;11.07;6.20;;;;;;;-1.53;100.00;99874.44;4842752;29;20105;-96
2023/12/01 03:20:10;;;;;;;8.98;6.03;;;;;;;-1.53;100.00;99878.81;4847813;29;20045;-96
2023/12/01 03:22:40;;;;;;;9.23;6.22;;;;;;;-1.53;100.00;99876.22;4818930;29;20056;-96
2023/12/01 03:25:09;;;;;;;12.52;6.82;;;;;;;-1.60;100.00;99875.69;4830757;29;20034;-96
2023/12/01 03:27:39;;;;;;;14.20;6.57;;;;;;;-1.60;100.00;99874.84;4837049;29;20030;-96
2023/12/01 03:30:13;;;;;;;12.00;6.60;;;;;;;-1.53;100.00;99878.81;4870468;29;20496;-96
2023/12/01 03:32:48;;;;;;;12.75;6.60;;;;;;;-1.50;100.00;99870.88;4831644;29;20033;-96
2023/12/01 03:35:18;;;;;;;12.27;7.53;;;;;;;-1.53;100.00;99878.81;4830765;29;20045;-96
2023/12/01 03:37:44;;;;;;;14.52;7.25;;;;;;;-1.55;100.00;99870.28;4836119;29;20049;-96
2023/12/01 03:40:14;;;;;;;14.40;6.90;;;;;;;-1.58;100.00;99875.63;4837225;29;20490;-96
2023/12/01 03:42:48;;;;;;;12.18;7.50;;;;;;;-1.60;100.00;99877.44;4845064;29;20532;-92
2023/12/01 03:45:14;;;;;;;10.93;6.13;;;;;;;-1.59;100.00;99892.09;4846429;29;20041;-96
2023/12/01 03:47:48;;;;;;;11.75;7.18;;;;;;;-1.56;100.00;99895.34;4833153;29;20041;-96
2023/12/01 03:50:15;;;;;;;12.70;8.02;;;;;;;-1.58;100.00;99891.16;4857383;29;20049;-96
2023/12/01 03:52:42;;;;;;;13.77;6.75;;;;;;;-1.57;100.00;99887.66;4843069;29;20051;-96
2023/12/01 03:55:10;;;;;;;12.43;8.48;;;;;;;-1.60;100.00;99890.41;4852671;29;20060;-96
2023/12/01 03:57:38;;;;;;;11.38;7.65;;;;;;;-1.62;100.00;99893.91;4846179;29;20065;-96
2023/12/01 04:00:08;;;;;;;10.85;7.78;;;;;;;-1.67;100.00;99889.91;4843940;29;20246;-96
2023/12/01 04:02:43;;;;;;;11.88;7.60;;;;;;;-1.70;100.00;99880.50;4856528;29;20580;-96
2023/12/01 04:05:17;;;;;;;14.98;7.55;;;;;;;-1.71;100.00;99884.03;4842374;29;20182;-96
2023/12/01 04:07:45;;;;;;;14.23;6.75;;;;;;;-1.70;100.00;99892.63;4865974;29;20041;-96
2023/12/01 04:10:11;;;;;;;9.52;6.88;;;;;;;-1.77;100.00;99886.94;4843639;29;20093;-96
2023/12/01 04:12:44;;;;;;;13.68;8.60;;;;;;;-1.81;100.00;99875.88;4860626;29;20041;-96
2023/12/01 04:15:16;;;;;;;10.80;7.90;;;;;;;-1.92;100.00;99876.44;4828865;29;20136;-96
2023/12/01 04:17:46;;;;;;;14.90;8.13;;;;;;;-1.87;100.00;99882.22;4844659;29;20049;-96
2023/12/01 04:20:29;;;;;;;11.75;7.80;;;;;;;-1.93;100.00;99877.38;4866757;29;20038;-96
2023/12/01 04:22:58;;;;;;;13.55;7.90;;;;;;;-1.89;100.00;99880.63;4833518;29;20042;-96
2023/12/01 04:25:24;;;;;;;11.10;7.70;;;;;;;-1.88;100.00;99884.91;4858709;29;20109;-96
2023/12/01 04:27:51;;;;;;;13.25;7.65;;;;;;;-1.83;100.00;99887.25;4835592;29;20037;-96
2023/12/01 04:30:17;;;;;;;14.90;7.45;;;;;;;-1.91;100.00;99878.09;4860785;29;20072;-96
2023/12/01 04:32:45;;;;;;;15.95;7.63;;;;;;;-1.88;100.00;99877.13;4828647;29;20110;-96
2023/12/01 04:35:15;;;;;;;11.32;7.15;;;;;;;-1.85;100.00;99886.50;4824375;29;20065;-96
2023/12/01 04:37:41;;;;;;;11.98;6.78;;;;;;;-1.88;100.00;99877.94;4845084;29;20065;-96
2023/12/01 04:40:17;;;;;;;11.82;7.45;;;;;;;-1.81;100.00;99880.22;4842525;29;20042;-96
2023/12/01 04:42:47;;;;;;;;;;;;;;;-1.82;100.00;99881.16;4846707;29;20129;-96
2023/12/01 04:45:18;;;;;;;15.50;7.45;;;;;;;-1.83;100.00;99882.06;4861326;29;19916;-96
2023/12/01 04:47:50;;;;;;;13.68;8.25;;;;;;;-1.81;100.00;99888.84;4825699;29;20125;-96
2023/12/01 04:50:16;;;;;;;15.02;8.60;;;;;;;-1.89;100.00;99876.28;4846025;29;20039;-96
2023/12/01 04:52:44;;;;;;;15.80;9.07;;;;;;;-1.78;100.00;99891.28;4845498;29;20037;-96
2023/12/01 04:55:12;;;;;;;14.35;8.43;;;;;;;-1.81;100.00;99890.59;4833587;29;20053;-96
2023/12/01 04:57:38;;;;;;;16.13;7.75;;;;;;;-1.86;100.00;99880.47;4835080;29;20030;-96
2023/12/01 05:00:18;;;;;;;12.43;8.35;;;;;;;-1.82;100.00;99894.09;4828029;29;20073;-96
2023/12/01 05:02:47;;;;;;;14.35;6.78;;;;;;;-1.83;100.00;99900.22;4845457;29;20575;-96
2023/12/01 05:05:17;;;;;;;13.30;8.05;;;;;;;-1.90;100.00;99881.53;4853820;29;20037;-96
2023/12/01 05:07:43;;;;;;;13.18;7.85;;;;;;;-1.90;100.00;99892.75;4828019;29;20041;-96
2023/12/01 05:10:14;;;;;;;11.82;7.80;;;;;;;-1.95;100.00;99889.53;4820832;29;20046;-96
2023/12/01 05:12:44;;;;;;;18.65;8.98;;;;;;;-1.97;100.00;99895.69;4826803;29;20046;-96
2023/12/01 05:15:18;;;;;;;12.30;8.20;;;;;;;-2.18;100.00;99891.53;4851435;29;20034;-96
2023/12/01 05:17:50;;;;;;;14.07;7.90;;;;;;;-2.18;100.00;99885.53;4831000;29;20041;-96
2023/12/01 05:20:18;;;;;;;11.88;7.50;;;;;;;-2.17;100.00;99890.63;4848499;29;20057;-96
2023/12/01 05:22:51;;;;;;;16.02;7.88;;;;;;;-2.19;100.00;99895.03;4818013;29;20046;-96
2023/12/01 05:25:18;;;;;;;15.45;8.48;;;;;;;-2.22;100.00;99891.75;4840583;29;20065;-96
2023/12/01 05:27:47;;;;;;;15.93;8.15;;;;;;;-2.22;100.00;99884.84;4860670;29;20173;-96
2023/12/01 05:30:15;;;;;;;19.73;8.65;;;;;;;-2.18;100.00;99890.72;4850677;29;20044;-96
2023/12/01 05:32:46;;;;;;;17.35;7.85;;;;;;;-2.22;100.00;99890.00;4846334;29;20037;-96
2023/12/01 05:35:14;;;;;;;16.98;8.70;;;;;;;-2.30;100.00;99890.38;4861502;29;20040;-96
2023/12/01 05:37:50;;;;;;;16.83;9.50;;;;;;;-2.34;100.00;99890.63;4854231;29;20038;-96
2023/12/01 05:40:25;;;;;;;13.57;8.68;;;;;;;-2.33;100.00;99885.38;4851313;29;20058;-96
2023/12/01 05:42:53;;;;;;;16.40;8.82;;;;;;;-2.32;100.00;99891.34;4848574;29;20082;-96
2023/12/01 05:45:35;;;;;;;17.48;9.68;;;;;;;-2.29;100.00;99886.03;4836867;29;20083;-96
2023/12/01 05:48:06;;;;;;;14.40;9.32;;;;;;;-2.32;100.00;99891.34;4878123;29;20056;-96
2023/12/01 05:50:36;;;;;;;16.17;8.85;;;;;;;-2.38;100.00;99884.75;4877196;29;20037;-96
2023/12/01 05:53:07;;;;;;;16.08;9.40;;;;;;;-2.33;100.00;99890.53;4861745;29;20049;-96
2023/12/01 05:55:38;;;;;;;12.82;8.77;;;;;;;-2.33;100.00;99892.28;4872302;29;20045;-96
2023/12/01 05:58:13;;;;;;;15.90;9.43;;;;;;;-2.29;100.00;99901.56;4864256;29;20049;-96
2023/12/01 06:00:41;;;;;;;15.30;9.68;;;;;;;-2.34;100.00;99890.63;4837482;29;20034;-96
2023/12/01 06:03:10;;;;;;;14.65;9.38;;;;;;;-2.31;100.00;99893.88;4857542;29;20053;-96
2023/12/01 06:05:39;;;;;;;17.73;9.20;;;;;;;-2.32;100.00;99893.94;4855042;29;20105;-96
2023/12/01 06:08:09;;;;;;;15.13;9.00;;;;;;;-2.41;100.00;99893.50;4854950;29;20030;-96
2023/12/01 06:10:38;;;;;;;13.07;8.15;;;;;;;-2.44;100.00;99900.56;4859801;29;20108;-96
2023/12/01 06:13:05;;;;;;;16.63;8.23;;;;;;;-2.48;100.00;99902.47;4843048;29;20038;-96
2023/12/01 06:15:32;;;;;;;16.23;9.52;;;;;;;-2.50;100.00;99902.53;4869577;29;20037;-96
2023/12/01 06:18:02;;;;;;;14.40;8.95;;;;;;;-2.45;100.00;99894.53;4834805;29;20075;-96
2023/12/01 06:20:37;;;;;;;15.90;9.13;;;;;;;-2.42;100.00;99898.75;4840326;29;20038;-96
2023/12/01 06:23:08;;;;;;;12.95;8.38;;;;;;;-2.38;100.00;99895.94;4857304;29;20049;-96
2023/12/01 06:25:41;;;;;;;15.65;8.40;;;;;;;-2.39;100.00;99896.84;4833827;29;20030;-96
2023/12/01 06:28:12;;;;;;;16.38;8.45;;;;;;;-2.44;100.00;99892.81;4835402;29;20022;-96
2023/12/01 06:30:43;;;;;;;15.45;8.80;;;;;;;-2.44;100.00;99897.97;4846950;29;20060;-96
2023/12/01 06:33:16;;;;;;;12.50;8.48;;;;;;;-2.44;100.00;99890.22;4851581;29;20049;-96
2023/12/01 06:35:47;;;;;;;11.38;7.60;;;;;;;-2.47;100.00;99883.44;4869056;29;20061;-96
2023/12/01 06:38:24;;;;;;;16.25;9.45;;;;;;;-2.50;100.00;99891.38;4840285;29;20048;-96
2023/12/01 06:40:55;;;;;;;13.20;8.40;;;;;;;-2.48;100.00;99889.53;4849376;29;20136;-96
2023/12/01 06:43:21;;;;;;;14.40;8.77;;;;;;;-2.53;100.00;99900.09;4840796;24;20063;-95
2023/12/01 06:45:47;;;;;;;13.40;9.38;;;;;;;-2.51;100.00;99897.44;4855602;29;20120;-95
2023/12/01 06:48:13;;;;;;;13.88;8.43;;;;;;;-2.50;100.00;99899.13;4850122;24;20042;-95
2023/12/01 06:50:39;;;;;;;11.90;8.10;;;;;;;-2.57;100.00;99901.16;4851590;29;20048;-96
2023/12/01 06:53:06;;;;;;;12.82;7.53;;;;;;;-2.56;100.00;99915.78;4838567;29;20039;-95
2023/12/01 06:55:32;;;;;;;16.27;8.48;;;;;;;-2.56;100.00;99913.19;4859366;29;20037;-92
2023/12/01 06:57:58;;;;;;;11.23;7.28;;;;;;;-2.51;100.00;99918.13;4846787;29;20591;-92
2023/12/01 07:00:30;;;;;;;9.55;6.88;;;;;;;-2.52;100.00;99914.72;4830826;29;20118;-95
2023/12/01 07:02:57;;;;;;;18.20;8.32;;;;;;;-2.54;100.00;99918.28;4847751;29;20072;-95
2023/12/01 07:05:25;;;;;;;11.68;7.70;;;;;;;-2.56;100.00;99926.13;4842993;29;20100;-94
2023/12/01 07:07:56;;;;;;;10.68;7.07;;;;;;;-2.52;100.00;99922.50;4850226;29;20507;-95
2023/12/01 07:10:22;;;;;;;14.05;8.43;;;;;;;-2.55;100.00;99922.59;4841463;29;20048;-95
2023/12/01 07:12:49;;;;;;;16.02;8.98;;;;;;;-2.52;100.00;99922.50;4830444;29;20197;-95
2023/12/01 07:15:20;;;;;;;15.57;8.32;;;;;;;-2.54;100.00;99923.47;4833541;29;20034;-91
2023/12/01 07:17:56;;;;;;;13.35;8.30;;;;;;;-2.48;100.00;99922.34;4846411;29;20298;-90
2023/12/01 07:20:22;;;;;;;14.00;7.75;;;;;;;-2.52;100.00;99937.19;4862108;29;21934;-95
2023/12/01 07:22:51;;;;;;;14.40;8.40;;;;;;;-2.54;100.00;99931.22;4846812;29;20044;-95
2023/12/01 07:25:21;;;;;;;14.55;7.80;;;;;;;-2.62;100.00;99940.19;4851848;29;20052;-91
2023/12/01 07:27:50;;;;;;;14.80;8.30;;;;;;;-2.61;100.00;99930.66;4869216;29;20044;-91
2023/12/01 07:30:16;;;;;;;15.13;8.75;;;;;;;-2.67;100.00;99936.97;4878180;29;20041;-90
2023/12/01 07:32:46;;;;;;;12.95;7.68;;;;;;;-2.68;100.00;99926.69;4844893;29;20053;-91
2023/12/01 07:35:13;;;;;;;15.45;8.27;;;;;;;-2.73;100.00;99926.91;4843352;29;20041;-89
2023/12/01 07:37:42;;;;;;;16.52;8.82;;;;;;;-2.72;100.00;99931.16;4831666;29;20038;-91
2023/12/01 07:40:13;;;;;;;15.68;8.65;;;;;;;-2.72;100.00;99926.00;4825010;29;20048;-92
2023/12/01 07:42:42;;;;;;;16.02;7.55;;;;;;;-2.73;100.00;99924.34;4840567;29;20048;-92
2023/12/01 07:45:08;;;;;;;12.70;7.68;;;;;;;-2.81;100.00;99931.59;4846346;29;20096;-92
2023/12/01 07:47:34;;;;;;;13.27;8.10;;;;;;;-2.87;100.00;99923.22;4872025;29;20068;-91
2023/12/01 07:50:01;;;;;;;12.07;7.88;;;;;;;-2.86;100.00;99934.41;4846263;29;20060;-93
2023/12/01 07:52:27;;;;;;;14.85;7.95;;;;;;;-2.81;100.00;99937.63;4842034;29;20033;-94
2023/12/01 07:54:53;;;;;;;13.88;7.68;;;;;;;-2.92;100.00;99940.72;4847840;29;20408;-96
2023/12/01 07:57:27;;;;;;;13.43;8.13;;;;;;;-2.95;100.00;99942.59;4854568;29;20048;-95
2023/12/01 08:00:17;;;;;;;18.80;8.63;;;;;;;-2.95;100.00;99950.34;4862778;29;20050;-96
2023/12/01 08:02:52;;;;;;;34.63;18.90;;;;;;;-2.97;100.00;99944.38;4855102;29;20053;-95
2023/12/01 08:05:26;;;;;;;17.80;11.15;;;;;;;-2.97;100.00;99953.00;4870894;29;20127;-96
2023/12/01 08:08:00;;;;;;;110.85;54.50;;;;;;;-3.04;100.00;99952.44;4847948;29;20104;-96
2023/12/01 08:10:41;;;;;;;29.92;17.73;;;;;;;-2.99;100.00;99959.97;4876534;29;20472;-96
2023/12/01 08:13:21;;;;;;;19.27;11.15;;;;;;;-2.93;100.00;99967.47;4853829;29;20060;-96
2023/12/01 09:18:34;;;;;;;14.05;8.57;;;;;;;-1.93;100.00;99988.75;5087849;24;20068;-91
2023/12/01 09:26:13;;;;;;;;;;;;;;;;;;;;;
2023/12/01 09:33:18;;;;;;;17.75;11.07;;;;;;;-1.44;100.00;99995.00;4821910;29;20381;-95
2023/12/01 09:36:44;;;;;;;20.27;10.07;;;;;;;-1.43;100.00;99991.47;4824194;29;20052;-95
2023/12/01 09:44:05;;;;;;;19.35;11.07;;;;;;;-1.35;100.00;99998.84;4858365;29;20051;-96
2023/12/01 09:52:08;;;;;;;15.57;10.10;;;;;;;-1.15;100.00;99997.81;4752785;29;20468;-96
2023/12/01 09:59:56;;;;;;;21.25;10.48;;;;;;;-0.82;100.00;100011.72;4828031;29;20069;-96
2023/12/01 10:03:45;;;;;;;19.88;11.15;;;;;;;-0.71;100.00;100012.88;4814100;29;20110;-95
2023/12/01 10:07:05;;;;;;;18.92;10.18;;;;;;;-0.57;100.00;100004.34;4823553;29;20035;-96
2023/12/01 10:10:17;;;;;;;16.83;10.10;;;;;;;-0.41;100.00;100005.19;4807348;29;20046;-91
2023/12/01 10:13:59;;;;;;;15.68;9.45;;;;;;;-0.21;100.00;100013.66;4737957;30;20066;-92
2023/12/01 10:17:49;;;;;;;15.75;8.75;;;;;;;-0.04;100.00;100009.25;4793297;29;20135;-95
2023/12/01 10:21:42;;;;;;;15.60;7.60;;;;;;;0.18;100.00;100011.47;4787675;29;20061;-95
2023/12/01 10:28:10;;;;;;;19.05;14.05;;;;;;;0.34;100.00;99998.44;4801127;29;20046;-94
2023/12/01 10:31:45;;;;;;;12.82;8.57;;;;;;;0.48;100.00;100010.63;4791374;29;20243;-95
2023/12/01 10:44:01;;;;;;;19.27;9.75;;;;;;;0.59;100.00;100004.78;4796291;29;20076;-95
2023/12/01 10:47:02;;;;;;;11.80;8.30;;;;;;;0.66;100.00;100014.84;4837409;29;20050;-96
2023/12/01 10:50:16;;;;;;;18.83;10.52;;;;;;;0.73;100.00;100026.56;4805975;29;20532;-95
2023/12/01 10:53:12;;;;;;;10.73;7.80;;;;;;;0.67;100.00;100026.94;4830060;29;20575;-95
2023/12/01 10:56:27;;;;;;;15.57;8.88;;;;;;;0.68;100.00;100026.00;4822026;29;20041;-94
2023/12/01 11:00:41;;;;;;;16.77;9.50;;;;;;;0.73;100.00;100027.38;4822722;29;20049;-94
2023/12/01 11:08:30;;;;;;;14.43;9.43;;;;;;;0.75;100.00;100011.69;4851249;29;20041;-94
2023/12/01 11:12:22;;;;;;;;;;;;;;;;;;;;;
2023/12/01 11:19:42;;;;;;;13.98;8.95;;;;;;;1.15;100.00;100012.84;4804117;29;20105;-93
2023/12/01 11:22:54;;;;;;;18.35;9.32;;;;;;;1.26;100.00;100005.16;4803494;29;20173;-93
2023/12/01 11:26:21;;;;;;;16.40;8.07;;;;;;;1.43;100.00;100013.72;4792810;29;20050;-93
2023/12/01 11:38:22;;;;;;;18.88;8.20;;;;;;;1.73;100.00;100010.97;4793238;29;20122;-96
2023/12/01 11:42:20;;;;;;;17.77;12.68;;;;;;;1.94;100.00;100014.88;4777592;29;20086;-94
2023/12/01 11:45:56;;;;;;;16.77;8.23;;;;;;;2.09;100.00;100008.66;4786265;29;20053;-93
2023/12/01 11:57:56;;;;;;;;;;;;;;;;;;;;;
2023/12/01 12:06:24;;;;;;;;;;;;;;;;;;;;;
2023/12/01 12:09:55;;;;;;;11.57;7.55;;;;;;;2.30;100.00;100002.13;4809202;29;20046;-89
2023/12/01 12:12:50;;;;;;;14.50;8.20;;;;;;;2.31;100.00;99990.78;4822196;29;20041;-92
2023/12/01 12:20:34;;;;;;;15.18;8.60;;;;;;;2.42;100.00;99997.91;4781380;29;20531;-93
2023/12/01 12:24:42;;;;;;;;;;;;;;;;;;;;;
2023/12/01 13:07:53;;;;;;;16.30;10.68;;;;;;;3.04;100.00;99967.59;4938866;24;20059;-96
2023/12/01 13:10:19;;;;;;;13.18;9.02;;;;;;;3.12;100.00;99972.28;4860597;29;20575;-96
2023/12/01 13:12:45;;;;;;;15.50;11.15;;;;;;;3.13;100.00;99965.28;4857346;24;20064;-96
2023/12/01 13:15:10;;;;;;;11.95;8.63;;;;;;;3.17;100.00;99964.13;4841545;29;20037;-96
2023/12/01 13:17:36;;;;;;;14.25;8.30;;;;;;;3.19;100.00;99970.06;4842960;29;20041;-96
2023/12/01 13:20:04;;;;;;;11.27;7.40;;;;;;;3.19;100.00;99965.69;4844787;29;20044;-96
2023/12/01 13:22:30;;;;;;;63.78;41.63;;;;;;;3.21;100.00;99962.97;4860179;29;20069;-96
2023/12/01 13:24:56;;;;;;;36.00;24.50;;;;;;;3.30;100.00;99977.97;4852651;29;20076;-96
2023/12/01 13:27:25;;;;;;;15.70;11.70;;;;;;;3.30;100.00;99967.53;4842379;29;20083;-96
2023/12/01 13:29:51;;;;;;;13.75;7.88;;;;;;;3.36;100.00;99974.09;4841717;29;20045;-96
2023/12/01 13:32:17;;;;;;;11.02;8.00;;;;;;;3.34;100.00;99963.75;4858155;29;20104;-96
2023/12/01 13:34:43;;;;;;;11.18;7.72;;;;;;;3.36;100.00;99966.25;4843766;29;20048;-96
2023/12/01 13:37:09;;;;;;;10.30;7.60;;;;;;;3.32;100.00;99965.66;4877451;29;20560;-96
2023/12/01 13:39:35;;;;;;;12.05;8.52;;;;;;;3.33;100.00;99964.69;4861077;29;20060;-96
2023/12/01 13:42:01;;;;;;;14.70;7.65;;;;;;;3.34;100.00;99966.34;4840688;29;20044;-96
2023/12/01 13:44:27;;;;;;;13.43;8.48;;;;;;;3.25;100.00;99966.19;4853806;29;20040;-96
2023/12/01 13:46:53;;;;;;;11.55;8.10;;;;;;;3.25;100.00;99972.25;4852698;29;20415;-96
2023/12/01 13:49:19;;;;;;;12.32;8.07;;;;;;;3.20;100.00;99971.75;4853601;29;20045;-96
2023/12/01 13:51:45;;;;;;;9.60;7.30;;;;;;;3.22;100.00;99975.06;4852138;29;20121;-96
2023/12/01 13:54:11;;;;;;;12.00;7.40;;;;;;;3.19;100.00;99973.53;4855151;29;20528;-96
2023/12/01 13:56:38;;;;;;;13.88;7.85;;;;;;;3.18;100.00;99977.09;4849505;29;20065;-96
2023/12/01 13:59:04;;;;;;;14.75;7.60;;;;;;;3.19;100.00;99976.13;4844661;29;20097;-96
2023/12/01 14:01:30;;;;;;;10.20;6.65;;;;;;;3.19;100.00;99980.50;4848893;29;20042;-96
2023/12/01 14:03:56;;;;;;;9.43;6.75;;;;;;;3.17;100.00;99987.66;4854265;29;20051;-96
2023/12/01 14:06:22;;;;;;;9.73;7.05;;;;;;;3.12;100.00;99974.06;4866256;29;20056;-96
2023/12/01 14:08:47;;;;;;;8.90;7.22;;;;;;;3.10;100.00;99980.25;4883480;29;20044;-96
2023/12/01 14:11:13;;;;;;;12.52;7.78;;;;;;;3.10;100.00;99976.78;4880079;29;20045;-96
2023/12/01 14:13:40;;;;;;;11.57;7.53;;;;;;;3.11;100.00;99983.66;4864375;29;20036;-96
2023/12/01 14:16:06;;;;;;;10.43;7.95;;;;;;;3.13;100.00;99983.56;4884451;29;20048;-96
2023/12/01 14:18:35;;;;;;;11.30;7.43;;;;;;;3.11;100.00;99983.66;4872180;29;20064;-96
2023/12/01 14:21:00;;;;;;;14.07;7.45;;;;;;;3.12;100.00;99985.34;4873386;29;20075;-96
2023/12/01 14:23:26;;;;;;;40.55;19.13;;;;;;;3.08;100.00;99982.13;4871946;29;20041;-96
2023/12/01 14:25:52;;;;;;;32.58;17.38;;;;;;;3.13;100.00;99984.41;4859160;29;20492;-96
2023/12/01 14:28:21;;;;;;;12.57;8.73;;;;;;;3.14;100.00;99986.06;4885105;29;20807;-96
2023/12/01 14:30:46;;;;;;;8.85;6.30;;;;;;;3.08;100.00;99982.13;4877969;29;20037;-96
2023/12/01 14:33:12;;;;;;;11.43;6.75;;;;;;;2.99;100.00;99974.91;4875360;29;20404;-96
2023/12/01 14:35:38;;;;;;;12.32;6.88;;;;;;;2.95;100.00;99976.06;4867070;29;20554;-96
2023/12/01 14:38:04;;;;;;;12.90;7.93;;;;;;;2.91;100.00;99978.06;4877688;29;20032;-96
2023/12/01 14:40:30;;;;;;;9.05;6.75;;;;;;;2.93;100.00;99984.00;4862658;29;20044;-96
2023/12/01 14:43:08;;;;;;;11.48;7.47;;;;;;;2.92;100.00;99978.88;4881152;29;20382;-96
2023/12/01 14:46:06;;;;;;;10.25;6.88;;;;;;;2.78;100.00;99974.63;4875151;29;20289;-96
2023/12/01 14:48:49;;;;;;;10.55;6.38;;;;;;;2.71;100.00;99977.66;4877371;29;20061;-96
2023/12/01 14:51:35;;;;;;;13.52;8.65;;;;;;;2.76;100.00;99968.66;4866996;29;20052;-96
2023/12/01 14:54:32;;;;;;;11.10;7.28;;;;;;;2.73;100.00;99974.94;4879736;29;20048;-96
2023/12/01 14:57:17;;;;;;;16.07;7.73;;;;;;;2.75;100.00;99978.28;4879061;29;20033;-96